Morris Fork, Kentucky
Current Conditions -  °F | °C
As of 6:53 PM on Friday 21 Nov 2014 (Local Time) from KJKL Reporting Station
Clear Clear  
Wind Chill: 35°   Ceiling: Unl
Heat Index: 35°   Visibility: 10mi
Dew Point:   Wind: 3mph
Humidity: 33%   Direction: 50°NE
Pressure: 30.43"   Gusts: NA
Location:  37.4818°N, 83.6652°W
Report Text: KJKL 212353Z AUTO 05003KT 10SM CLR 02/M13 A3043 RMK AO2 SLP318 T00171133 56003
Loading
Personal Weather Stations






























Interactive Weather Map New forecast layout! Learn more

10-Day Weather Forecast

Advertisements
Track Severe Weather on mobile